sensor_id;sensor_type;location;lat;lon;timestamp;pressure;altitude;pressure_sealevel;temperature;humidity
75891;BME280;64571;47.512;19.054;2022-11-20T00:02:36;100190.91;;;2.63;78.74
75891;BME280;64571;47.512;19.054;2022-11-20T00:05:39;100158.81;;;2.47;78.73
75891;BME280;64571;47.512;19.054;2022-11-20T00:08:41;100170.31;;;2.44;78.88
75891;BME280;64571;47.512;19.054;2022-11-20T00:11:44;100170.62;;;2.47;79.24
75891;BME280;64571;47.512;19.054;2022-11-20T00:14:46;100158.06;;;2.51;78.77
75891;BME280;64571;47.512;19.054;2022-11-20T00:17:49;100166.97;;;2.42;78.70
75891;BME280;64571;47.512;19.054;2022-11-20T00:20:51;100146.28;;;2.34;78.43
75891;BME280;64571;47.512;19.054;2022-11-20T00:23:55;100137.75;;;2.31;78.28
75891;BME280;64571;47.512;19.054;2022-11-20T00:26:58;100150.03;;;2.28;78.49
75891;BME280;64571;47.512;19.054;2022-11-20T00:30:01;100185.59;;;2.40;78.29
75891;BME280;64571;47.512;19.054;2022-11-20T00:33:03;100189.59;;;2.49;77.97
75891;BME280;64571;47.512;19.054;2022-11-20T00:36:17;100155.78;;;2.26;77.80
75891;BME280;64571;47.512;19.054;2022-11-20T00:39:19;100154.50;;;2.34;77.08
75891;BME280;64571;47.512;19.054;2022-11-20T00:42:22;100199.66;;;2.43;77.63
75891;BME280;64571;47.512;19.054;2022-11-20T00:45:24;100197.06;;;2.37;77.45
75891;BME280;64571;47.512;19.054;2022-11-20T00:48:27;100206.87;;;2.49;77.46
75891;BME280;64571;47.512;19.054;2022-11-20T00:51:29;100193.50;;;2.53;76.95
75891;BME280;64571;47.512;19.054;2022-11-20T00:54:32;100183.09;;;2.55;76.73
75891;BME280;64571;47.512;19.054;2022-11-20T00:57:34;100165.41;;;2.46;76.61
75891;BME280;64571;47.512;19.054;2022-11-20T01:00:36;100172.87;;;2.50;77.31
75891;BME280;64571;47.512;19.054;2022-11-20T01:03:43;100181.59;;;2.47;77.44
75891;BME280;64571;47.512;19.054;2022-11-20T01:06:46;100159.75;;;2.36;77.86
75891;BME280;64571;47.512;19.054;2022-11-20T01:09:48;100179.72;;;2.48;78.32
75891;BME280;64571;47.512;19.054;2022-11-20T01:12:51;100185.09;;;2.43;78.78
75891;BME280;64571;47.512;19.054;2022-11-20T01:19:21;100177.94;;;2.42;79.63
75891;BME280;64571;47.512;19.054;2022-11-20T01:22:24;100185.69;;;2.45;79.89
75891;BME280;64571;47.512;19.054;2022-11-20T01:25:27;100179.59;;;2.43;79.95
75891;BME280;64571;47.512;19.054;2022-11-20T01:28:29;100178.97;;;2.52;80.16
75891;BME280;64571;47.512;19.054;2022-11-20T01:31:34;100183.00;;;2.50;80.83
75891;BME280;64571;47.512;19.054;2022-11-20T01:34:37;100184.44;;;2.52;81.03
75891;BME280;64571;47.512;19.054;2022-11-20T01:37:39;100177.28;;;2.51;81.19
75891;BME280;64571;47.512;19.054;2022-11-20T01:40:42;100166.28;;;2.51;81.08
75891;BME280;64571;47.512;19.054;2022-11-20T01:43:44;100134.25;;;2.35;81.03
75891;BME280;64571;47.512;19.054;2022-11-20T01:47:00;100159.66;;;2.47;81.39
75891;BME280;64571;47.512;19.054;2022-11-20T01:50:26;100155.91;;;2.53;81.35
75891;BME280;64571;47.512;19.054;2022-11-20T01:53:33;100150.84;;;2.45;81.10
75891;BME280;64571;47.512;19.054;2022-11-20T01:56:40;100134.81;;;2.37;81.32
75891;BME280;64571;47.512;19.054;2022-11-20T01:59:51;100146.03;;;2.52;81.16
75891;BME280;64571;47.512;19.054;2022-11-20T02:03:07;100130.91;;;2.50;81.08
75891;BME280;64571;47.512;19.054;2022-11-20T02:09:27;100148.09;;;2.62;80.87
75891;BME280;64571;47.512;19.054;2022-11-20T02:12:30;100148.59;;;2.59;80.89
75891;BME280;64571;47.512;19.054;2022-11-20T02:16:32;100152.50;;;2.63;80.53
75891;BME280;64571;47.512;19.054;2022-11-20T02:19:35;100162.31;;;2.59;80.53
75891;BME280;64571;47.512;19.054;2022-11-20T02:22:44;100151.25;;;2.54;80.66
75891;BME280;64571;47.512;19.054;2022-11-20T02:25:50;100151.59;;;2.41;80.95
75891;BME280;64571;47.512;19.054;2022-11-20T02:28:54;100164.75;;;2.39;81.26
75891;BME280;64571;47.512;19.054;2022-11-20T02:31:58;100160.25;;;2.49;80.97
75891;BME280;64571;47.512;19.054;2022-11-20T02:35:35;100159.16;;;2.50;80.82
75891;BME280;64571;47.512;19.054;2022-11-20T02:38:32;100132.63;;;2.56;80.99
75891;BME280;64571;47.512;19.054;2022-11-20T02:41:36;100136.53;;;2.60;80.50
75891;BME280;64571;47.512;19.054;2022-11-20T02:44:39;100128.91;;;2.62;79.96
75891;BME280;64571;47.512;19.054;2022-11-20T02:47:41;100130.00;;;2.61;80.24
75891;BME280;64571;47.512;19.054;2022-11-20T02:50:44;100116.38;;;2.49;80.21
75891;BME280;64571;47.512;19.054;2022-11-20T02:53:46;100127.88;;;2.68;80.33
75891;BME280;64571;47.512;19.054;2022-11-20T02:56:48;100126.72;;;2.64;80.31
75891;BME280;64571;47.512;19.054;2022-11-20T02:59:51;100134.72;;;2.66;80.29
75891;BME280;64571;47.512;19.054;2022-11-20T03:02:53;100129.31;;;2.71;80.57
75891;BME280;64571;47.512;19.054;2022-11-20T03:05:58;100101.13;;;2.59;80.51
75891;BME280;64571;47.512;19.054;2022-11-20T03:09:01;100105.94;;;2.68;80.30
75891;BME280;64571;47.512;19.054;2022-11-20T03:12:04;100119.38;;;2.70;80.35
75891;BME280;64571;47.512;19.054;2022-11-20T03:15:07;100092.91;;;2.59;80.54
75891;BME280;64571;47.512;19.054;2022-11-20T03:18:09;100101.19;;;2.64;80.36
75891;BME280;64571;47.512;19.054;2022-11-20T03:21:13;100096.41;;;2.54;80.59
75891;BME280;64571;47.512;19.054;2022-11-20T03:24:15;100123.97;;;2.64;80.32
75891;BME280;64571;47.512;19.054;2022-11-20T03:27:18;100139.53;;;2.59;79.84
75891;BME280;64571;47.512;19.054;2022-11-20T03:30:20;100110.88;;;2.49;79.29
75891;BME280;64571;47.512;19.054;2022-11-20T03:33:30;100145.09;;;2.64;79.36
75891;BME280;64571;47.512;19.054;2022-11-20T03:36:33;100129.47;;;2.64;78.94
75891;BME280;64571;47.512;19.054;2022-11-20T03:39:35;100130.41;;;2.53;78.67
75891;BME280;64571;47.512;19.054;2022-11-20T03:42:38;100119.38;;;2.48;78.77
75891;BME280;64571;47.512;19.054;2022-11-20T03:45:49;100122.25;;;2.58;79.14
75891;BME280;64571;47.512;19.054;2022-11-20T03:48:52;100117.41;;;2.65;78.79
75891;BME280;64571;47.512;19.054;2022-11-20T03:51:54;100122.25;;;2.58;78.94
75891;BME280;64571;47.512;19.054;2022-11-20T03:54:57;100119.56;;;2.63;78.99
75891;BME280;64571;47.512;19.054;2022-11-20T03:57:59;100101.00;;;2.48;78.83
75891;BME280;64571;47.512;19.054;2022-11-20T04:01:16;100119.50;;;2.58;78.50
75891;BME280;64571;47.512;19.054;2022-11-20T04:04:19;100091.41;;;2.51;78.44
75891;BME280;64571;47.512;19.054;2022-11-20T04:07:21;100115.50;;;2.66;78.71
75891;BME280;64571;47.512;19.054;2022-11-20T04:10:24;100121.16;;;2.59;79.17
75891;BME280;64571;47.512;19.054;2022-11-20T04:13:26;100104.28;;;2.67;79.49
75891;BME280;64571;47.512;19.054;2022-11-20T04:16:30;100115.31;;;2.72;80.28
75891;BME280;64571;47.512;19.054;2022-11-20T04:19:33;100098.28;;;2.70;80.22
75891;BME280;64571;47.512;19.054;2022-11-20T04:22:36;100106.00;;;2.73;80.36
75891;BME280;64571;47.512;19.054;2022-11-20T04:25:38;100088.97;;;2.71;80.66
75891;BME280;64571;47.512;19.054;2022-11-20T04:28:41;100079.66;;;2.72;80.71
75891;BME280;64571;47.512;19.054;2022-11-20T04:31:43;100089.28;;;2.75;80.52
75891;BME280;64571;47.512;19.054;2022-11-20T04:34:46;100082.47;;;2.77;80.58
75891;BME280;64571;47.512;19.054;2022-11-20T04:37:51;100060.56;;;2.61;80.31
75891;BME280;64571;47.512;19.054;2022-11-20T04:41:02;100063.06;;;2.62;80.39
75891;BME280;64571;47.512;19.054;2022-11-20T04:44:05;100091.13;;;2.69;80.52
75891;BME280;64571;47.512;19.054;2022-11-20T04:47:08;100092.28;;;2.73;80.84
75891;BME280;64571;47.512;19.054;2022-11-20T04:50:11;100068.97;;;2.54;80.91
75891;BME280;64571;47.512;19.054;2022-11-20T04:53:14;100086.16;;;2.66;81.12
75891;BME280;64571;47.512;19.054;2022-11-20T04:56:16;100044.63;;;2.58;81.13
75891;BME280;64571;47.512;19.054;2022-11-20T04:59:19;100056.88;;;2.72;81.08
75891;BME280;64571;47.512;19.054;2022-11-20T05:02:21;100043.41;;;2.48;81.52
75891;BME280;64571;47.512;19.054;2022-11-20T05:05:24;100057.25;;;2.59;81.55
75891;BME280;64571;47.512;19.054;2022-11-20T05:08:27;100056.22;;;2.65;81.73
75891;BME280;64571;47.512;19.054;2022-11-20T05:11:31;100042.72;;;2.58;81.75
75891;BME280;64571;47.512;19.054;2022-11-20T05:14:34;100056.41;;;2.58;81.41
75891;BME280;64571;47.512;19.054;2022-11-20T05:17:37;100070.19;;;2.63;81.20
75891;BME280;64571;47.512;19.054;2022-11-20T05:20:39;100070.84;;;2.70;81.00
75891;BME280;64571;47.512;19.054;2022-11-20T05:23:43;100047.59;;;2.56;80.74
75891;BME280;64571;47.512;19.054;2022-11-20T05:26:45;100048.19;;;2.58;80.86
75891;BME280;64571;47.512;19.054;2022-11-20T05:29:48;100042.56;;;2.70;80.45
75891;BME280;64571;47.512;19.054;2022-11-20T05:32:50;100046.47;;;2.74;80.32
75891;BME280;64571;47.512;19.054;2022-11-20T05:35:52;100017.59;;;2.66;80.43
75891;BME280;64571;47.512;19.054;2022-11-20T05:38:55;100042.38;;;2.76;80.30
75891;BME280;64571;47.512;19.054;2022-11-20T05:42:02;100027.84;;;2.76;80.07
75891;BME280;64571;47.512;19.054;2022-11-20T05:45:24;100032.81;;;2.79;80.03
75891;BME280;64571;47.512;19.054;2022-11-20T05:48:26;100031.69;;;2.75;80.08
75891;BME280;64571;47.512;19.054;2022-11-20T05:51:29;100045.47;;;2.80;80.29
75891;BME280;64571;47.512;19.054;2022-11-20T05:54:31;100044.75;;;2.90;80.28
75891;BME280;64571;47.512;19.054;2022-11-20T05:57:34;100033.66;;;2.79;80.21
75891;BME280;64571;47.512;19.054;2022-11-20T06:00:36;100056.56;;;2.90;79.92
75891;BME280;64571;47.512;19.054;2022-11-20T06:03:40;100062.94;;;2.96;79.21
75891;BME280;64571;47.512;19.054;2022-11-20T06:06:44;100059.94;;;2.97;78.76
75891;BME280;64571;47.512;19.054;2022-11-20T06:09:47;100047.50;;;2.90;78.98
75891;BME280;64571;47.512;19.054;2022-11-20T06:12:49;100046.66;;;2.89;78.57
75891;BME280;64571;47.512;19.054;2022-11-20T06:15:53;100059.03;;;2.92;78.93
75891;BME280;64571;47.512;19.054;2022-11-20T06:18:55;100076.75;;;3.06;78.83
75891;BME280;64571;47.512;19.054;2022-11-20T06:21:58;100059.22;;;3.07;78.71
75891;BME280;64571;47.512;19.054;2022-11-20T06:25:00;100034.97;;;2.99;78.19
75891;BME280;64571;47.512;19.054;2022-11-20T06:28:03;100033.31;;;2.98;78.01
75891;BME280;64571;47.512;19.054;2022-11-20T06:31:06;100044.69;;;3.07;78.03
75891;BME280;64571;47.512;19.054;2022-11-20T06:34:09;100059.97;;;3.24;78.03
75891;BME280;64571;47.512;19.054;2022-11-20T06:37:11;100068.44;;;3.23;78.17
75891;BME280;64571;47.512;19.054;2022-11-20T06:40:14;100086.06;;;3.27;78.42
75891;BME280;64571;47.512;19.054;2022-11-20T06:43:19;100071.34;;;3.11;78.38
75891;BME280;64571;47.512;19.054;2022-11-20T06:46:22;100081.19;;;3.07;78.83
75891;BME280;64571;47.512;19.054;2022-11-20T06:49:25;100088.13;;;3.15;78.62
75891;BME280;64571;47.512;19.054;2022-11-20T06:52:27;100103.81;;;3.19;77.76
75891;BME280;64571;47.512;19.054;2022-11-20T06:55:31;100098.97;;;3.26;77.46
75891;BME280;64571;47.512;19.054;2022-11-20T06:58:34;100101.22;;;3.29;77.36
75891;BME280;64571;47.512;19.054;2022-11-20T07:01:37;100093.91;;;3.40;77.26
75891;BME280;64571;47.512;19.054;2022-11-20T07:04:39;100067.66;;;3.27;76.77
75891;BME280;64571;47.512;19.054;2022-11-20T07:07:42;100083.84;;;3.51;76.92
75891;BME280;64571;47.512;19.054;2022-11-20T07:10:44;100076.22;;;3.58;76.94
75891;BME280;64571;47.512;19.054;2022-11-20T07:13:47;100087.78;;;3.60;77.05
75891;BME280;64571;47.512;19.054;2022-11-20T07:16:49;100065.94;;;3.43;77.11
75891;BME280;64571;47.512;19.054;2022-11-20T07:19:52;100086.94;;;3.60;77.94
75891;BME280;64571;47.512;19.054;2022-11-20T07:22:55;100099.91;;;3.64;78.01
75891;BME280;64571;47.512;19.054;2022-11-20T07:26:08;100108.88;;;3.54;78.12
75891;BME280;64571;47.512;19.054;2022-11-20T07:29:11;100113.50;;;3.49;79.04
75891;BME280;64571;47.512;19.054;2022-11-20T07:32:13;100094.72;;;3.41;79.41
75891;BME280;64571;47.512;19.054;2022-11-20T07:35:16;100112.88;;;3.42;79.95
75891;BME280;64571;47.512;19.054;2022-11-20T07:38:18;100098.53;;;3.35;80.53
75891;BME280;64571;47.512;19.054;2022-11-20T07:41:21;100128.56;;;3.46;79.95
75891;BME280;64571;47.512;19.054;2022-11-20T07:44:23;100118.44;;;3.47;80.94
75891;BME280;64571;47.512;19.054;2022-11-20T07:47:26;100110.75;;;3.49;81.07
75891;BME280;64571;47.512;19.054;2022-11-20T07:50:28;100094.56;;;3.25;79.81
75891;BME280;64571;47.512;19.054;2022-11-20T07:53:30;100111.16;;;3.36;80.86
75891;BME280;64571;47.512;19.054;2022-11-20T07:56:33;100117.44;;;3.31;80.65
75891;BME280;64571;47.512;19.054;2022-11-20T07:59:35;100101.44;;;3.28;80.52
75891;BME280;64571;47.512;19.054;2022-11-20T08:02:41;100116.66;;;3.36;80.39
75891;BME280;64571;47.512;19.054;2022-11-20T08:05:43;100103.25;;;3.39;80.53
75891;BME280;64571;47.512;19.054;2022-11-20T08:08:46;100105.59;;;3.52;80.56
75891;BME280;64571;47.512;19.054;2022-11-20T08:11:48;100102.59;;;3.59;80.42
75891;BME280;64571;47.512;19.054;2022-11-20T08:15:09;100096.66;;;3.67;80.62
75891;BME280;64571;47.512;19.054;2022-11-20T08:18:14;100096.88;;;3.61;79.58
75891;BME280;64571;47.512;19.054;2022-11-20T08:21:33;100102.41;;;3.66;79.79
75891;BME280;64571;47.512;19.054;2022-11-20T08:24:39;100085.16;;;3.70;79.46
75891;BME280;64571;47.512;19.054;2022-11-20T08:27:42;100088.03;;;3.86;79.29
75891;BME280;64571;47.512;19.054;2022-11-20T08:30:44;100096.41;;;4.01;79.38
75891;BME280;64571;47.512;19.054;2022-11-20T08:33:48;100094.22;;;4.03;79.54
75891;BME280;64571;47.512;19.054;2022-11-20T08:36:50;100095.13;;;4.14;79.77
75891;BME280;64571;47.512;19.054;2022-11-20T08:39:52;100094.59;;;4.17;80.13
75891;BME280;64571;47.512;19.054;2022-11-20T08:42:56;100080.50;;;4.08;79.51
75891;BME280;64571;47.512;19.054;2022-11-20T08:45:58;100108.69;;;4.25;79.47
75891;BME280;64571;47.512;19.054;2022-11-20T08:49:00;100109.00;;;4.29;79.73
75891;BME280;64571;47.512;19.054;2022-11-20T08:52:03;100117.22;;;4.24;80.17
75891;BME280;64571;47.512;19.054;2022-11-20T08:55:07;100113.06;;;4.21;79.83
75891;BME280;64571;47.512;19.054;2022-11-20T08:58:09;100112.94;;;4.38;80.04
75891;BME280;64571;47.512;19.054;2022-11-20T09:01:12;100120.31;;;4.32;79.80
75891;BME280;64571;47.512;19.054;2022-11-20T09:04:14;100128.06;;;4.41;79.59
75891;BME280;64571;47.512;19.054;2022-11-20T09:07:17;100125.31;;;4.41;79.89
75891;BME280;64571;47.512;19.054;2022-11-20T09:10:20;100135.00;;;4.48;79.51
75891;BME280;64571;47.512;19.054;2022-11-20T09:13:27;100127.06;;;4.52;78.99
75891;BME280;64571;47.512;19.054;2022-11-20T09:16:30;100133.38;;;4.52;79.40
75891;BME280;64571;47.512;19.054;2022-11-20T09:19:33;100125.63;;;4.44;78.80
75891;BME280;64571;47.512;19.054;2022-11-20T09:22:41;100113.22;;;4.42;79.48
75891;BME280;64571;47.512;19.054;2022-11-20T09:25:44;100141.94;;;4.56;79.55
75891;BME280;64571;47.512;19.054;2022-11-20T09:28:46;100125.09;;;4.47;79.49
75891;BME280;64571;47.512;19.054;2022-11-20T09:31:49;100136.97;;;4.53;78.87
75891;BME280;64571;47.512;19.054;2022-11-20T09:34:51;100136.44;;;4.56;79.15
75891;BME280;64571;47.512;19.054;2022-11-20T09:37:54;100133.31;;;4.42;78.94
75891;BME280;64571;47.512;19.054;2022-11-20T09:40:58;100119.38;;;4.59;79.15
75891;BME280;64571;47.512;19.054;2022-11-20T09:44:24;100120.50;;;4.63;79.53
75891;BME280;64571;47.512;19.054;2022-11-20T09:57:13;100117.09;;;4.88;79.36
75891;BME280;64571;47.512;19.054;2022-11-20T10:00:19;100101.06;;;4.80;78.94
75891;BME280;64571;47.512;19.054;2022-11-20T10:03:35;100108.34;;;5.06;79.60
75891;BME280;64571;47.512;19.054;2022-11-20T10:07:07;100097.06;;;5.08;78.95
75891;BME280;64571;47.512;19.054;2022-11-20T10:10:42;100109.50;;;5.21;78.94
75891;BME280;64571;47.512;19.054;2022-11-20T10:14:25;100100.41;;;5.20;78.16
75891;BME280;64571;47.512;19.054;2022-11-20T10:18:11;100088.28;;;5.21;78.20
75891;BME280;64571;47.512;19.054;2022-11-20T10:21:31;100084.13;;;5.08;77.80
75891;BME280;64571;47.512;19.054;2022-11-20T10:31:10;100056.41;;;5.46;77.29
75891;BME280;64571;47.512;19.054;2022-11-20T10:37:43;100055.31;;;5.62;76.56
75891;BME280;64571;47.512;19.054;2022-11-20T10:40:51;100059.75;;;5.68;76.17
75891;BME280;64571;47.512;19.054;2022-11-20T10:44:17;100058.38;;;5.76;76.36
75891;BME280;64571;47.512;19.054;2022-11-20T10:47:44;100052.84;;;5.61;74.92
75891;BME280;64571;47.512;19.054;2022-11-20T10:51:08;100030.50;;;5.57;74.42
75891;BME280;64571;47.512;19.054;2022-11-20T11:01:20;100058.38;;;6.17;74.12
75891;BME280;64571;47.512;19.054;2022-11-20T11:07:35;100062.25;;;6.36;72.46
75891;BME280;64571;47.512;19.054;2022-11-20T11:10:48;100050.41;;;6.30;72.35
75891;BME280;64571;47.512;19.054;2022-11-20T11:13:52;100054.22;;;6.34;72.49
75891;BME280;64571;47.512;19.054;2022-11-20T11:16:57;100080.72;;;6.41;72.01
75891;BME280;64571;47.512;19.054;2022-11-20T11:20:20;100078.50;;;6.48;71.97
75891;BME280;64571;47.512;19.054;2022-11-20T11:23:31;100055.31;;;6.44;72.09
75891;BME280;64571;47.512;19.054;2022-11-20T11:26:34;100071.88;;;6.59;71.60
75891;BME280;64571;47.512;19.054;2022-11-20T11:29:36;100070.72;;;6.70;71.50
75891;BME280;64571;47.512;19.054;2022-11-20T11:32:39;100080.06;;;6.79;71.11
75891;BME280;64571;47.512;19.054;2022-11-20T11:35:47;100083.91;;;6.89;70.92
75891;BME280;64571;47.512;19.054;2022-11-20T11:38:52;100075.63;;;6.94;70.73
75891;BME280;64571;47.512;19.054;2022-11-20T11:41:58;100066.22;;;6.95;70.69
75891;BME280;64571;47.512;19.054;2022-11-20T11:45:00;100060.66;;;7.05;70.77
75891;BME280;64571;47.512;19.054;2022-11-20T11:48:09;100056.50;;;7.07;70.84
75891;BME280;64571;47.512;19.054;2022-11-20T11:51:11;100053.44;;;7.09;70.96
75891;BME280;64571;47.512;19.054;2022-11-20T11:54:25;100063.41;;;7.05;70.89
75891;BME280;64571;47.512;19.054;2022-11-20T11:57:56;100032.25;;;6.94;71.15
75891;BME280;64571;47.512;19.054;2022-11-20T12:01:38;100039.66;;;7.04;70.93
75891;BME280;64571;47.512;19.054;2022-11-20T12:04:52;100037.16;;;7.02;70.99
75891;BME280;64571;47.512;19.054;2022-11-20T12:08:02;100018.69;;;6.93;71.08
75891;BME280;64571;47.512;19.054;2022-11-20T12:11:22;100041.00;;;7.06;71.00
75891;BME280;64571;47.512;19.054;2022-11-20T12:14:35;100047.94;;;7.09;71.19
75891;BME280;64571;47.512;19.054;2022-11-20T12:17:39;100051.50;;;7.09;71.21
75891;BME280;64571;47.512;19.054;2022-11-20T12:20:47;100053.47;;;7.04;71.16
75891;BME280;64571;47.512;19.054;2022-11-20T12:24:38;100033.13;;;6.84;70.55
75891;BME280;64571;47.512;19.054;2022-11-20T12:27:51;100031.44;;;6.89;71.18
75891;BME280;64571;47.512;19.054;2022-11-20T12:34:29;100030.03;;;6.91;71.39
75891;BME280;64571;47.512;19.054;2022-11-20T12:51:36;100037.28;;;6.77;71.36
75891;BME280;64571;47.512;19.054;2022-11-20T13:07:53;100051.41;;;6.65;71.93
75891;BME280;64571;47.512;19.054;2022-11-20T13:11:18;100029.06;;;6.56;71.59
75891;BME280;64571;47.512;19.054;2022-11-20T13:14:37;100049.78;;;6.59;71.66
75891;BME280;64571;47.512;19.054;2022-11-20T13:17:58;100058.59;;;6.71;71.61
75891;BME280;64571;47.512;19.054;2022-11-20T13:21:01;100035.72;;;6.45;71.94
75891;BME280;64571;47.512;19.054;2022-11-20T13:24:19;100049.47;;;6.66;72.24
75891;BME280;64571;47.512;19.054;2022-11-20T13:27:23;100048.62;;;6.70;71.92
75891;BME280;64571;47.512;19.054;2022-11-20T13:30:27;100044.22;;;6.69;72.24
75891;BME280;64571;47.512;19.054;2022-11-20T13:33:35;100038.19;;;6.62;72.14
75891;BME280;64571;47.512;19.054;2022-11-20T13:36:49;100039.78;;;6.73;72.42
75891;BME280;64571;47.512;19.054;2022-11-20T13:39:52;100040.09;;;6.62;72.76
75891;BME280;64571;47.512;19.054;2022-11-20T13:43:16;100028.81;;;6.58;73.26
75891;BME280;64571;47.512;19.054;2022-11-20T13:46:20;100016.94;;;6.57;73.13
75891;BME280;64571;47.512;19.054;2022-11-20T13:49:31;100016.69;;;6.49;73.30
75891;BME280;64571;47.512;19.054;2022-11-20T13:52:39;100019.72;;;6.42;73.58
75891;BME280;64571;47.512;19.054;2022-11-20T13:56:02;100017.78;;;6.43;73.80
75891;BME280;64571;47.512;19.054;2022-11-20T14:02:41;100011.41;;;6.57;74.03
75891;BME280;64571;47.512;19.054;2022-11-20T14:06:10;99988.00;;;6.40;74.01
75891;BME280;64571;47.512;19.054;2022-11-20T14:09:29;99981.34;;;6.46;74.05
75891;BME280;64571;47.512;19.054;2022-11-20T14:12:33;100002.87;;;6.49;73.86
75891;BME280;64571;47.512;19.054;2022-11-20T14:15:36;100010.88;;;6.50;74.48
75891;BME280;64571;47.512;19.054;2022-11-20T14:18:46;99999.84;;;6.45;74.30
75891;BME280;64571;47.512;19.054;2022-11-20T14:21:52;100004.28;;;6.36;74.40
75891;BME280;64571;47.512;19.054;2022-11-20T14:28:26;100003.19;;;6.32;74.41
75891;BME280;64571;47.512;19.054;2022-11-20T14:31:30;100008.72;;;6.27;74.49
75891;BME280;64571;47.512;19.054;2022-11-20T14:34:37;100013.94;;;6.33;74.90
75891;BME280;64571;47.512;19.054;2022-11-20T14:37:40;100008.44;;;6.28;74.67
75891;BME280;64571;47.512;19.054;2022-11-20T14:40:43;100020.03;;;6.30;74.84
75891;BME280;64571;47.512;19.054;2022-11-20T14:43:56;100027.47;;;6.30;74.96
75891;BME280;64571;47.512;19.054;2022-11-20T14:47:02;100039.91;;;6.32;75.11
75891;BME280;64571;47.512;19.054;2022-11-20T14:50:13;100033.56;;;6.27;75.01
75891;BME280;64571;47.512;19.054;2022-11-20T14:53:23;100034.66;;;6.26;75.17
75891;BME280;64571;47.512;19.054;2022-11-20T14:56:27;100021.72;;;6.06;75.25
75891;BME280;64571;47.512;19.054;2022-11-20T14:59:32;100018.69;;;6.13;75.64
75891;BME280;64571;47.512;19.054;2022-11-20T15:02:44;100023.37;;;6.07;75.20
75891;BME280;64571;47.512;19.054;2022-11-20T15:05:48;100040.75;;;6.18;75.83
75891;BME280;64571;47.512;19.054;2022-11-20T15:08:52;100039.94;;;6.17;75.80
75891;BME280;64571;47.512;19.054;2022-11-20T15:11:57;100027.25;;;5.96;75.56
75891;BME280;64571;47.512;19.054;2022-11-20T15:15:01;100049.31;;;6.06;76.03
75891;BME280;64571;47.512;19.054;2022-11-20T15:18:04;100050.41;;;6.00;76.21
75891;BME280;64571;47.512;19.054;2022-11-20T15:21:12;100056.47;;;5.97;76.20
75891;BME280;64571;47.512;19.054;2022-11-20T15:24:15;100024.44;;;5.80;76.00
75891;BME280;64571;47.512;19.054;2022-11-20T15:27:18;100047.34;;;5.91;76.33
75891;BME280;64571;47.512;19.054;2022-11-20T15:30:21;100048.22;;;5.97;76.23
75891;BME280;64571;47.512;19.054;2022-11-20T15:33:23;100048.72;;;5.83;76.08
75891;BME280;64571;47.512;19.054;2022-11-20T15:36:26;100052.59;;;5.82;76.34
75891;BME280;64571;47.512;19.054;2022-11-20T15:39:29;100052.59;;;5.72;76.29
75891;BME280;64571;47.512;19.054;2022-11-20T15:42:32;100038.25;;;5.65;76.46
75891;BME280;64571;47.512;19.054;2022-11-20T15:45:38;100039.59;;;5.63;76.27
75891;BME280;64571;47.512;19.054;2022-11-20T15:48:44;100042.09;;;5.64;76.36
75891;BME280;64571;47.512;19.054;2022-11-20T15:51:50;100058.66;;;5.74;76.41
75891;BME280;64571;47.512;19.054;2022-11-20T15:54:52;100062.50;;;5.73;76.55
75891;BME280;64571;47.512;19.054;2022-11-20T15:57:55;100056.19;;;5.73;76.63
75891;BME280;64571;47.512;19.054;2022-11-20T16:00:57;100050.37;;;5.69;76.54
75891;BME280;64571;47.512;19.054;2022-11-20T16:04:00;100045.97;;;5.63;76.88
75891;BME280;64571;47.512;19.054;2022-11-20T16:07:03;100045.97;;;5.63;76.86
75891;BME280;64571;47.512;19.054;2022-11-20T16:10:06;100055.34;;;5.72;77.04
75891;BME280;64571;47.512;19.054;2022-11-20T16:13:13;100042.09;;;5.64;77.16
75891;BME280;64571;47.512;19.054;2022-11-20T16:16:36;100046.78;;;5.69;77.21
75891;BME280;64571;47.512;19.054;2022-11-20T16:19:39;100044.03;;;5.69;77.07
75891;BME280;64571;47.512;19.054;2022-11-20T16:22:42;100050.37;;;5.69;77.22
75891;BME280;64571;47.512;19.054;2022-11-20T16:25:44;100025.81;;;5.57;76.95
75891;BME280;64571;47.512;19.054;2022-11-20T16:28:47;100048.72;;;5.68;77.04
75891;BME280;64571;47.512;19.054;2022-11-20T16:31:49;100034.66;;;5.59;77.19
75891;BME280;64571;47.512;19.054;2022-11-20T16:34:52;100029.69;;;5.51;77.33
75891;BME280;64571;47.512;19.054;2022-11-20T16:37:55;100052.03;;;5.70;77.41
75891;BME280;64571;47.512;19.054;2022-11-20T16:41:02;100025.28;;;5.55;77.43
75891;BME280;64571;47.512;19.054;2022-11-20T16:44:09;100033.84;;;5.59;77.59
75891;BME280;64571;47.512;19.054;2022-11-20T16:47:13;100043.47;;;5.62;77.79
75891;BME280;64571;47.512;19.054;2022-11-20T16:50:15;100042.66;;;5.61;77.80
75891;BME280;64571;47.512;19.054;2022-11-20T16:53:19;100033.56;;;5.61;77.78
75891;BME280;64571;47.512;19.054;2022-11-20T16:56:24;100027.75;;;5.52;78.01
75891;BME280;64571;47.512;19.054;2022-11-20T16:59:27;100013.41;;;5.40;78.21
75891;BME280;64571;47.512;19.054;2022-11-20T17:02:30;100018.09;;;5.39;78.35
75891;BME280;64571;47.512;19.054;2022-11-20T17:05:33;100026.94;;;5.51;78.50
75891;BME280;64571;47.512;19.054;2022-11-20T17:08:36;100019.19;;;5.43;78.42
75891;BME280;64571;47.512;19.054;2022-11-20T17:11:39;100021.13;;;5.48;78.45
75891;BME280;64571;47.512;19.054;2022-11-20T17:14:41;100004.06;;;5.41;78.66
75891;BME280;64571;47.512;19.054;2022-11-20T17:17:44;100012.03;;;5.52;78.76
75891;BME280;64571;47.512;19.054;2022-11-20T17:20:51;100010.41;;;5.51;78.80
75891;BME280;64571;47.512;19.054;2022-11-20T17:23:54;100004.06;;;5.51;78.39
75891;BME280;64571;47.512;19.054;2022-11-20T17:26:56;100004.88;;;5.51;78.13
75891;BME280;64571;47.512;19.054;2022-11-20T17:29:59;99993.84;;;5.51;78.41